Gdf Suez North Sea — HPSQ — position and weather

sailwx.info

Track history (hours):
 
Tides and Currents Weather Stations Pressure Air Temp Water Temp Dewpoint Dewpoint Depression Visibility Wind Speed Wind Dir Waves Ship Positions

Gdf Suez North Sea

Last reported at 2015-Feb-28 05:33 UTC. Time now 2015-Feb-28 06:55 UTC.
Position N 39°16' W 076°34'.

Length 190 m; draft 8.5 m.

Type: Ship. MMSI: 373341000.

Date/timePositionNaut miles runAvg speedWind from/ knotsBaromVisibWave heightAir tempDewpointWater temp
2015-Feb-28 05:33N 39°16' W 076°34'0 0.0
2015-Feb-28 04:33N 39°16' W 076°34'0 0.0
2015-Feb-28 03:33N 39°16' W 076°34'0 0.0
2015-Feb-28 02:33N 39°16' W 076°34'0 0.0
2015-Feb-28 01:33N 39°16' W 076°34'0 0.0
2015-Feb-28 00:33N 39°16' W 076°34'0 0.0
2015-Feb-27 23:33N 39°16' W 076°34'0 0.0
2015-Feb-27 22:33N 39°16' W 076°34'0 0.0
2015-Feb-27 21:33N 39°16' W 076°34'0 0.0
2015-Feb-27 20:33N 39°16' W 076°34'0 0.0
2015-Feb-27 19:33N 39°16' W 076°34'0 0.0
2015-Feb-27 18:33N 39°16' W 076°34'0 0.0
2015-Feb-27 17:33N 39°16' W 076°34'0 0.0
2015-Feb-27 16:33N 39°16' W 076°34'0 0.0
2015-Feb-27 15:33N 39°16' W 076°34'0 0.0
2015-Feb-27 14:33N 39°16' W 076°34'0 0.0
2015-Feb-27 13:33N 39°16' W 076°34'0 0.0
2015-Feb-27 12:33N 39°16' W 076°34'0 0.0
2015-Feb-27 11:33N 39°16' W 076°34'0 0.0
2015-Feb-27 10:34N 39°16' W 076°34'0 0.0
2015-Feb-27 09:33N 39°16' W 076°34'0 0.0
2015-Feb-27 08:33N 39°16' W 076°34'0 0.0
2015-Feb-27 07:33N 39°16' W 076°34'0 0.0
2015-Feb-27 06:33N 39°16' W 076°34'0 0.0
2015-Feb-27 05:33N 39°16' W 076°34'0 0.0
2015-Feb-27 04:33N 39°16' W 076°34'0 0.0
2015-Feb-27 03:33N 39°16' W 076°34'0 0.0
2015-Feb-27 02:33N 39°16' W 076°34'0 0.0
2015-Feb-27 01:33N 39°16' W 076°34'0 0.0
2015-Feb-27 00:33N 39°16' W 076°34'0 0.0
2015-Feb-26 23:33N 39°16' W 076°34'0 0.0
2015-Feb-26 22:34N 39°16' W 076°34'0 0.0
2015-Feb-26 21:33N 39°16' W 076°34'0 0.0
2015-Feb-26 20:33N 39°16' W 076°34'0 0.0
2015-Feb-26 19:33N 39°16' W 076°34'0 0.0
2015-Feb-26 18:33N 39°16' W 076°34'0 0.0
2015-Feb-26 17:33N 39°16' W 076°34'0 0.0
2015-Feb-26 16:33N 39°16' W 076°34'0 0.0
2015-Feb-26 15:33N 39°16' W 076°34'0 0.0
2015-Feb-26 14:33N 39°16' W 076°34'0 0.0
2015-Feb-26 13:33N 39°16' W 076°34'1 1.1
2015-Feb-26 12:33N 39°15' W 076°34'9 8.6
2015-Feb-26 11:33N 39°10' W 076°25'8 8.0
2015-Feb-26 10:33N 39°13' W 076°15'1111.3
2015-Feb-26 09:33N 39°23' W 076°07'1010.5
2015-Feb-26 08:33N 39°29' W 075°57'8 8.0
2015-Feb-26 07:31N 39°32' W 075°46'12 6.0
2015-Feb-26 05:33N 39°39' W 075°34'5 4.4
2015-Feb-26 04:32N 39°43' W 075°31'0 0.0
2015-Feb-26 03:23N 39°43' W 075°31'0 0.0
2015-Feb-26 02:32N 39°43' W 075°31'0 0.0
2015-Feb-26 01:32N 39°43' W 075°31'0 0.0
2015-Feb-26 00:32N 39°43' W 075°31'0 0.0
2015-Feb-25 23:32N 39°43' W 075°31'0 0.0
2015-Feb-25 22:32N 39°43' W 075°31'0 0.0
2015-Feb-25 21:32N 39°43' W 075°31'0 0.0
2015-Feb-25 20:32N 39°43' W 075°31'0 0.0
2015-Feb-25 19:32N 39°43' W 075°31'0 0.0
2015-Feb-25 18:32N 39°43' W 075°31'0 0.0
2015-Feb-25 17:32N 39°43' W 075°31'0 0.0
2015-Feb-25 16:32N 39°43' W 075°31'0 0.0
2015-Feb-25 15:32N 39°43' W 075°31'0 0.0
2015-Feb-25 14:32N 39°43' W 075°31'0 0.0
2015-Feb-25 13:32N 39°43' W 075°31'0 0.0
2015-Feb-25 12:32N 39°43' W 075°31'0 0.0
2015-Feb-25 11:32N 39°43' W 075°31'0 0.0
2015-Feb-25 10:32N 39°43' W 075°31'0 0.0
2015-Feb-25 09:32N 39°43' W 075°31'0 0.0
2015-Feb-25 08:32N 39°43' W 075°31'0 0.0
2015-Feb-25 07:32N 39°43' W 075°31'0 0.0
2015-Feb-25 06:32N 39°43' W 075°31'0 0.0
2015-Feb-25 05:32N 39°43' W 075°31'0 0.0
2015-Feb-25 04:32N 39°43' W 075°31'0 0.0
2015-Feb-25 03:32N 39°43' W 075°31'0 0.0
2015-Feb-25 02:32N 39°43' W 075°31'0 0.0
2015-Feb-25 01:32N 39°43' W 075°31'0 0.0
2015-Feb-25 00:32N 39°43' W 075°31'0 0.0
2015-Feb-24 23:32N 39°43' W 075°31'0 0.0
2015-Feb-24 22:32N 39°43' W 075°31'0 0.0
2015-Feb-24 21:32N 39°43' W 075°31'0 0.0
2015-Feb-24 20:32N 39°43' W 075°31'0 0.0
2015-Feb-24 19:32N 39°43' W 075°31'0 0.0
2015-Feb-24 18:32N 39°43' W 075°31'0 0.0
2015-Feb-24 17:32N 39°43' W 075°31'0 0.0
2015-Feb-24 16:32N 39°43' W 075°31'0 0.0
2015-Feb-24 15:32N 39°43' W 075°31'0 0.0
2015-Feb-24 14:32N 39°43' W 075°31'0 0.0
2015-Feb-24 13:32N 39°43' W 075°31'0 0.0
2015-Feb-24 12:32N 39°43' W 075°31'0 0.0
2015-Feb-24 11:32N 39°43' W 075°31'0 0.0
2015-Feb-24 10:32N 39°43' W 075°31'0 0.0
2015-Feb-24 09:32N 39°43' W 075°31'0 0.0
2015-Feb-24 08:32N 39°43' W 075°31'0 0.0
2015-Feb-24 07:32N 39°43' W 075°31'0 0.0
2015-Feb-24 06:32N 39°43' W 075°31'0 0.0
2015-Feb-24 05:32N 39°43' W 075°31'0 0.0
2015-Feb-24 04:32N 39°43' W 075°31'0 0.0
2015-Feb-24 03:32N 39°43' W 075°31'0 0.0
2015-Feb-24 02:32N 39°43' W 075°31'0 0.0
2015-Feb-24 01:32N 39°43' W 075°31'0 0.0
2015-Feb-24 00:32N 39°43' W 075°31'0 0.0
2015-Feb-23 23:32N 39°43' W 075°31'0 0.0
2015-Feb-23 22:32N 39°43' W 075°31'0 0.0
2015-Feb-23 21:32N 39°43' W 075°31'0 0.0
2015-Feb-23 20:32N 39°43' W 075°31'0 0.0
2015-Feb-23 19:32N 39°43' W 075°31'0 0.0
2015-Feb-23 18:32N 39°43' W 075°31'0 0.3
2015-Feb-23 17:33N 39°43' W 075°31'1 0.7
2015-Feb-23 16:33N 39°43' W 075°31'0 0.0
2015-Feb-23 15:33N 39°43' W 075°31'0 0.0
2015-Feb-23 14:33N 39°43' W 075°31'0 0.0
2015-Feb-23 13:33N 39°43' W 075°31'0 0.0
2015-Feb-23 12:33N 39°43' W 075°31'0 0.0
2015-Feb-23 11:33N 39°43' W 075°31'0 0.0
2015-Feb-23 10:33N 39°43' W 075°31'0 0.0
2015-Feb-23 09:33N 39°43' W 075°31'0 0.0
2015-Feb-23 08:33N 39°43' W 075°31'0 0.0
2015-Feb-23 07:33N 39°43' W 075°31'0 0.0
2015-Feb-23 06:33N 39°43' W 075°31'0 0.0
2015-Feb-23 05:33N 39°43' W 075°31'0 0.0
2015-Feb-23 04:33N 39°43' W 075°31'0 0.0
2015-Feb-23 03:33N 39°43' W 075°31'0 0.0
2015-Feb-23 02:33N 39°43' W 075°31'0 0.0
2015-Feb-23 01:33N 39°43' W 075°31'0 0.0
2015-Feb-23 00:33N 39°43' W 075°31'0 0.0
2015-Feb-22 23:33N 39°43' W 075°31'0 0.0
2015-Feb-22 22:33N 39°43' W 075°31'1 1.3
2015-Feb-22 21:33N 39°42' W 075°31'7 7.1
2015-Feb-22 20:33N 39°35' W 075°34'1010.0
2015-Feb-22 19:33N 39°25' W 075°31'1111.0
2015-Feb-22 18:33N 39°17' W 075°22'1110.7
2015-Feb-22 17:33N 39°08' W 075°14'1210.6
2015-Feb-22 16:26N 38°58' W 075°07'5 5.0
2015-Feb-22 15:31N 38°53' W 075°07'0 0.1
2015-Feb-22 14:22N 38°53' W 075°07'0 0.1
2015-Feb-22 13:33N 38°53' W 075°07'6 4.4
2015-Feb-22 12:08N 38°48' W 075°02'  
Track history (hours):
 
Tides and Currents Weather Stations Pressure Air Temp Water Temp Dewpoint Dewpoint Depression Visibility Wind Speed Wind Dir Waves Ship Positions

Gdf Suez North Sea

Last reported at 2015-Feb-28 05:33 UTC. Time now 2015-Feb-28 06:55 UTC.
Position N 39°16' W 076°34'.

Length 190 m; draft 8.5 m.

Type: Ship. MMSI: 373341000.

Date/timePositionNaut miles runAvg speedWind from/ knotsBaromVisibWave heightAir tempDewpointWater temp
2015-Feb-28 05:33N 39°16' W 076°34'0 0.0
2015-Feb-28 04:33N 39°16' W 076°34'0 0.0
2015-Feb-28 03:33N 39°16' W 076°34'0 0.0
2015-Feb-28 02:33N 39°16' W 076°34'0 0.0
2015-Feb-28 01:33N 39°16' W 076°34'0 0.0
2015-Feb-28 00:33N 39°16' W 076°34'0 0.0
2015-Feb-27 23:33N 39°16' W 076°34'0 0.0
2015-Feb-27 22:33N 39°16' W 076°34'0 0.0
2015-Feb-27 21:33N 39°16' W 076°34'0 0.0
2015-Feb-27 20:33N 39°16' W 076°34'0 0.0
2015-Feb-27 19:33N 39°16' W 076°34'0 0.0
2015-Feb-27 18:33N 39°16' W 076°34'0 0.0
2015-Feb-27 17:33N 39°16' W 076°34'0 0.0
2015-Feb-27 16:33N 39°16' W 076°34'0 0.0
2015-Feb-27 15:33N 39°16' W 076°34'0 0.0
2015-Feb-27 14:33N 39°16' W 076°34'0 0.0
2015-Feb-27 13:33N 39°16' W 076°34'0 0.0
2015-Feb-27 12:33N 39°16' W 076°34'0 0.0
2015-Feb-27 11:33N 39°16' W 076°34'0 0.0
2015-Feb-27 10:34N 39°16' W 076°34'0 0.0
2015-Feb-27 09:33N 39°16' W 076°34'0 0.0
2015-Feb-27 08:33N 39°16' W 076°34'0 0.0
2015-Feb-27 07:33N 39°16' W 076°34'0 0.0
2015-Feb-27 06:33N 39°16' W 076°34'0 0.0
2015-Feb-27 05:33N 39°16' W 076°34'0 0.0
2015-Feb-27 04:33N 39°16' W 076°34'0 0.0
2015-Feb-27 03:33N 39°16' W 076°34'0 0.0
2015-Feb-27 02:33N 39°16' W 076°34'0 0.0
2015-Feb-27 01:33N 39°16' W 076°34'0 0.0
2015-Feb-27 00:33N 39°16' W 076°34'0 0.0
2015-Feb-26 23:33N 39°16' W 076°34'0 0.0
2015-Feb-26 22:34N 39°16' W 076°34'0 0.0
2015-Feb-26 21:33N 39°16' W 076°34'0 0.0
2015-Feb-26 20:33N 39°16' W 076°34'0 0.0
2015-Feb-26 19:33N 39°16' W 076°34'0 0.0
2015-Feb-26 18:33N 39°16' W 076°34'0 0.0
2015-Feb-26 17:33N 39°16' W 076°34'0 0.0
2015-Feb-26 16:33N 39°16' W 076°34'0 0.0
2015-Feb-26 15:33N 39°16' W 076°34'0 0.0
2015-Feb-26 14:33N 39°16' W 076°34'0 0.0
2015-Feb-26 13:33N 39°16' W 076°34'1 1.1
2015-Feb-26 12:33N 39°15' W 076°34'9 8.6
2015-Feb-26 11:33N 39°10' W 076°25'8 8.0
2015-Feb-26 10:33N 39°13' W 076°15'1111.3
2015-Feb-26 09:33N 39°23' W 076°07'1010.5
2015-Feb-26 08:33N 39°29' W 075°57'8 8.0
2015-Feb-26 07:31N 39°32' W 075°46'12 6.0
2015-Feb-26 05:33N 39°39' W 075°34'5 4.4
2015-Feb-26 04:32N 39°43' W 075°31'0 0.0
2015-Feb-26 03:23N 39°43' W 075°31'0 0.0
2015-Feb-26 02:32N 39°43' W 075°31'0 0.0
2015-Feb-26 01:32N 39°43' W 075°31'0 0.0
2015-Feb-26 00:32N 39°43' W 075°31'0 0.0
2015-Feb-25 23:32N 39°43' W 075°31'0 0.0
2015-Feb-25 22:32N 39°43' W 075°31'0 0.0
2015-Feb-25 21:32N 39°43' W 075°31'0 0.0
2015-Feb-25 20:32N 39°43' W 075°31'0 0.0
2015-Feb-25 19:32N 39°43' W 075°31'0 0.0
2015-Feb-25 18:32N 39°43' W 075°31'0 0.0
2015-Feb-25 17:32N 39°43' W 075°31'0 0.0
2015-Feb-25 16:32N 39°43' W 075°31'0 0.0
2015-Feb-25 15:32N 39°43' W 075°31'0 0.0
2015-Feb-25 14:32N 39°43' W 075°31'0 0.0
2015-Feb-25 13:32N 39°43' W 075°31'0 0.0
2015-Feb-25 12:32N 39°43' W 075°31'0 0.0
2015-Feb-25 11:32N 39°43' W 075°31'0 0.0
2015-Feb-25 10:32N 39°43' W 075°31'0 0.0
2015-Feb-25 09:32N 39°43' W 075°31'0 0.0
2015-Feb-25 08:32N 39°43' W 075°31'0 0.0
2015-Feb-25 07:32N 39°43' W 075°31'0 0.0
2015-Feb-25 06:32N 39°43' W 075°31'0 0.0
2015-Feb-25 05:32N 39°43' W 075°31'0 0.0
2015-Feb-25 04:32N 39°43' W 075°31'0 0.0
2015-Feb-25 03:32N 39°43' W 075°31'0 0.0
2015-Feb-25 02:32N 39°43' W 075°31'0 0.0
2015-Feb-25 01:32N 39°43' W 075°31'0 0.0
2015-Feb-25 00:32N 39°43' W 075°31'0 0.0
2015-Feb-24 23:32N 39°43' W 075°31'0 0.0
2015-Feb-24 22:32N 39°43' W 075°31'0 0.0
2015-Feb-24 21:32N 39°43' W 075°31'0 0.0
2015-Feb-24 20:32N 39°43' W 075°31'0 0.0
2015-Feb-24 19:32N 39°43' W 075°31'0 0.0
2015-Feb-24 18:32N 39°43' W 075°31'0 0.0
2015-Feb-24 17:32N 39°43' W 075°31'0 0.0
2015-Feb-24 16:32N 39°43' W 075°31'0 0.0
2015-Feb-24 15:32N 39°43' W 075°31'0 0.0
2015-Feb-24 14:32N 39°43' W 075°31'0 0.0
2015-Feb-24 13:32N 39°43' W 075°31'0 0.0
2015-Feb-24 12:32N 39°43' W 075°31'0 0.0
2015-Feb-24 11:32N 39°43' W 075°31'0 0.0
2015-Feb-24 10:32N 39°43' W 075°31'0 0.0
2015-Feb-24 09:32N 39°43' W 075°31'0 0.0
2015-Feb-24 08:32N 39°43' W 075°31'0 0.0
2015-Feb-24 07:32N 39°43' W 075°31'0 0.0
2015-Feb-24 06:32N 39°43' W 075°31'0 0.0
2015-Feb-24 05:32N 39°43' W 075°31'0 0.0
2015-Feb-24 04:32N 39°43' W 075°31'0 0.0
2015-Feb-24 03:32N 39°43' W 075°31'0 0.0
2015-Feb-24 02:32N 39°43' W 075°31'0 0.0
2015-Feb-24 01:32N 39°43' W 075°31'0 0.0
2015-Feb-24 00:32N 39°43' W 075°31'0 0.0
2015-Feb-23 23:32N 39°43' W 075°31'0 0.0
2015-Feb-23 22:32N 39°43' W 075°31'0 0.0
2015-Feb-23 21:32N 39°43' W 075°31'0 0.0
2015-Feb-23 20:32N 39°43' W 075°31'0 0.0
2015-Feb-23 19:32N 39°43' W 075°31'0 0.0
2015-Feb-23 18:32N 39°43' W 075°31'0 0.3
2015-Feb-23 17:33N 39°43' W 075°31'1 0.7
2015-Feb-23 16:33N 39°43' W 075°31'0 0.0
2015-Feb-23 15:33N 39°43' W 075°31'0 0.0
2015-Feb-23 14:33N 39°43' W 075°31'0 0.0
2015-Feb-23 13:33N 39°43' W 075°31'0 0.0
2015-Feb-23 12:33N 39°43' W 075°31'0 0.0
2015-Feb-23 11:33N 39°43' W 075°31'0 0.0
2015-Feb-23 10:33N 39°43' W 075°31'0 0.0
2015-Feb-23 09:33N 39°43' W 075°31'0 0.0
2015-Feb-23 08:33N 39°43' W 075°31'0 0.0
2015-Feb-23 07:33N 39°43' W 075°31'0 0.0
2015-Feb-23 06:33N 39°43' W 075°31'0 0.0
2015-Feb-23 05:33N 39°43' W 075°31'0 0.0
2015-Feb-23 04:33N 39°43' W 075°31'0 0.0
2015-Feb-23 03:33N 39°43' W 075°31'0 0.0
2015-Feb-23 02:33N 39°43' W 075°31'0 0.0
2015-Feb-23 01:33N 39°43' W 075°31'0 0.0
2015-Feb-23 00:33N 39°43' W 075°31'0 0.0
2015-Feb-22 23:33N 39°43' W 075°31'0 0.0
2015-Feb-22 22:33N 39°43' W 075°31'1 1.3
2015-Feb-22 21:33N 39°42' W 075°31'7 7.1
2015-Feb-22 20:33N 39°35' W 075°34'1010.0
2015-Feb-22 19:33N 39°25' W 075°31'1111.0
2015-Feb-22 18:33N 39°17' W 075°22'1110.7
2015-Feb-22 17:33N 39°08' W 075°14'1210.6
2015-Feb-22 16:26N 38°58' W 075°07'5 5.0
2015-Feb-22 15:31N 38°53' W 075°07'0 0.1
2015-Feb-22 14:22N 38°53' W 075°07'0 0.1
2015-Feb-22 13:33N 38°53' W 075°07'6 4.4
2015-Feb-22 12:08N 38°48' W 075°02'  

Dump ship's entire track history